Terminal Aerodrome Forecast
Issued by NWS Cleveland, OH

Home | Current Version | Previous Version | Graphics & Text | Print | Product List | Glossary On
Versions: 1 2 3 4 5 6 7 8 9 10 11 12 13 14 15
000
FTUS41 KCLE 251131
TAFERI
TAF
KERI 251131Z 2512/2612 18009KT P6SM SCT090 BKN250
     FM251500 22010KT P6SM FEW050 SCT200 PROB30 2600/2606 -TSRA
      BKN040CB
     FM260700 26005KT P6SM BKN030=

USA.gov is the U.S. government's official web portal to all federal, state and local government web resources and services.